sensor_id;sensor_type;location;lat;lon;timestamp;pressure;altitude;pressure_sealevel;temperature;humidity
37778;BME280;23615;51.506;7.678;2022-11-20T00:02:23;99681.53;;;-2.05;89.02
37778;BME280;23615;51.506;7.678;2022-11-20T00:04:48;99692.00;;;-2.23;89.27
37778;BME280;23615;51.506;7.678;2022-11-20T00:07:14;99686.84;;;-2.15;89.09
37778;BME280;23615;51.506;7.678;2022-11-20T00:09:39;99683.78;;;-2.28;89.27
37778;BME280;23615;51.506;7.678;2022-11-20T00:12:04;99683.88;;;-2.20;89.73
37778;BME280;23615;51.506;7.678;2022-11-20T00:14:30;99688.69;;;-2.25;89.67
37778;BME280;23615;51.506;7.678;2022-11-20T00:16:55;99667.88;;;-2.35;89.99
37778;BME280;23615;51.506;7.678;2022-11-20T00:19:20;99670.63;;;-2.36;90.67
37778;BME280;23615;51.506;7.678;2022-11-20T00:21:45;99672.13;;;-2.34;90.75
37778;BME280;23615;51.506;7.678;2022-11-20T00:24:12;99677.22;;;-2.32;90.38
37778;BME280;23615;51.506;7.678;2022-11-20T00:26:37;99676.84;;;-2.37;91.02
37778;BME280;23615;51.506;7.678;2022-11-20T00:29:03;99682.13;;;-2.11;90.81
37778;BME280;23615;51.506;7.678;2022-11-20T00:31:29;99682.31;;;-1.87;90.73
37778;BME280;23615;51.506;7.678;2022-11-20T00:33:55;99683.97;;;-1.86;90.46
37778;BME280;23615;51.506;7.678;2022-11-20T00:36:22;99683.34;;;-1.80;91.16
37778;BME280;23615;51.506;7.678;2022-11-20T00:38:56;99681.59;;;-1.71;91.47
37778;BME280;23615;51.506;7.678;2022-11-20T00:41:23;99681.97;;;-1.66;91.38
37778;BME280;23615;51.506;7.678;2022-11-20T00:43:49;99700.28;;;-1.66;92.16
37778;BME280;23615;51.506;7.678;2022-11-20T00:46:17;99687.22;;;-1.66;91.98
37778;BME280;23615;51.506;7.678;2022-11-20T00:48:44;99693.44;;;-1.85;92.58
37778;BME280;23615;51.506;7.678;2022-11-20T00:51:12;99681.25;;;-1.76;93.23
37778;BME280;23615;51.506;7.678;2022-11-20T00:53:38;99678.50;;;-1.75;93.52
37778;BME280;23615;51.506;7.678;2022-11-20T00:56:06;99679.56;;;-1.26;96.61
37778;BME280;23615;51.506;7.678;2022-11-20T00:58:33;99681.69;;;-1.29;96.42
37778;BME280;23615;51.506;7.678;2022-11-20T01:03:35;99682.28;;;-1.09;92.85
37778;BME280;23615;51.506;7.678;2022-11-20T01:06:03;99676.72;;;-1.06;92.74
37778;BME280;23615;51.506;7.678;2022-11-20T01:08:33;99676.72;;;-1.06;92.38
37778;BME280;23615;51.506;7.678;2022-11-20T01:11:03;99683.75;;;-1.07;93.18
37778;BME280;23615;51.506;7.678;2022-11-20T01:13:30;99682.09;;;-1.08;93.20
37778;BME280;23615;51.506;7.678;2022-11-20T01:16:13;99681.22;;;-1.25;93.54
37778;BME280;23615;51.506;7.678;2022-11-20T01:18:41;99688.50;;;-1.10;93.50
37778;BME280;23615;51.506;7.678;2022-11-20T01:21:09;99688.38;;;-1.01;94.31
37778;BME280;23615;51.506;7.678;2022-11-20T01:23:37;99688.25;;;-0.91;93.63
37778;BME280;23615;51.506;7.678;2022-11-20T01:26:06;99679.69;;;-1.01;93.62
37778;BME280;23615;51.506;7.678;2022-11-20T01:28:32;99678.22;;;-1.04;94.16
37778;BME280;23615;51.506;7.678;2022-11-20T01:30:58;99672.13;;;-1.13;94.69
37778;BME280;23615;51.506;7.678;2022-11-20T01:33:24;99669.84;;;-1.07;95.00
37778;BME280;23615;51.506;7.678;2022-11-20T01:35:50;99669.50;;;-1.13;94.94
37778;BME280;23615;51.506;7.678;2022-11-20T01:38:16;99679.59;;;-0.84;95.19
37778;BME280;23615;51.506;7.678;2022-11-20T01:40:41;99667.78;;;-0.88;94.56
37778;BME280;23615;51.506;7.678;2022-11-20T01:43:20;99677.81;;;-0.75;94.39
37778;BME280;23615;51.506;7.678;2022-11-20T01:48:39;99675.50;;;-0.78;94.38
37778;BME280;23615;51.506;7.678;2022-11-20T01:51:14;99667.31;;;-0.91;94.63
37778;BME280;23615;51.506;7.678;2022-11-20T01:53:41;99673.25;;;-0.73;95.24
37778;BME280;23615;51.506;7.678;2022-11-20T01:56:09;99666.53;;;-0.76;95.34
37778;BME280;23615;51.506;7.678;2022-11-20T01:58:39;99659.34;;;-0.65;95.32
37778;BME280;23615;51.506;7.678;2022-11-20T02:01:06;99651.28;;;-0.72;95.01
37778;BME280;23615;51.506;7.678;2022-11-20T02:03:31;99652.25;;;-0.81;95.61
37778;BME280;23615;51.506;7.678;2022-11-20T02:06:14;99650.84;;;-0.59;95.79
37778;BME280;23615;51.506;7.678;2022-11-20T02:08:40;99645.78;;;-0.45;95.07
37778;BME280;23615;51.506;7.678;2022-11-20T02:11:06;99642.16;;;-0.60;95.67
37778;BME280;23615;51.506;7.678;2022-11-20T02:13:32;99642.31;;;-0.53;95.65
37778;BME280;23615;51.506;7.678;2022-11-20T02:16:14;99629.75;;;-0.50;95.66
37778;BME280;23615;51.506;7.678;2022-11-20T02:18:40;99632.03;;;-0.55;95.59
37778;BME280;23615;51.506;7.678;2022-11-20T02:21:24;99629.41;;;-0.55;96.27
37778;BME280;23615;51.506;7.678;2022-11-20T02:24:05;99624.66;;;-0.59;96.34
37778;BME280;23615;51.506;7.678;2022-11-20T02:26:38;99620.91;;;-0.49;96.33
37778;BME280;23615;51.506;7.678;2022-11-20T02:29:05;99617.97;;;-0.21;96.33
37778;BME280;23615;51.506;7.678;2022-11-20T02:31:36;99622.69;;;-0.33;96.25
37778;BME280;23615;51.506;7.678;2022-11-20T02:34:02;99615.34;;;-0.38;96.31
37778;BME280;23615;51.506;7.678;2022-11-20T02:36:28;99616.78;;;-0.35;96.79
37778;BME280;23615;51.506;7.678;2022-11-20T02:38:55;99628.44;;;-0.38;96.70
37778;BME280;23615;51.506;7.678;2022-11-20T02:41:20;99637.13;;;-0.21;96.92
37778;BME280;23615;51.506;7.678;2022-11-20T02:43:45;99639.22;;;-0.08;96.22
37778;BME280;23615;51.506;7.678;2022-11-20T02:46:11;99639.59;;;-0.11;96.51
37778;BME280;23615;51.506;7.678;2022-11-20T02:48:36;99633.84;;;-0.15;96.60
37778;BME280;23615;51.506;7.678;2022-11-20T02:51:02;99637.59;;;-0.25;97.06
37778;BME280;23615;51.506;7.678;2022-11-20T02:53:27;99635.31;;;-0.20;97.33
37778;BME280;23615;51.506;7.678;2022-11-20T02:55:52;99636.97;;;-0.19;97.52
37778;BME280;23615;51.506;7.678;2022-11-20T02:58:18;99624.19;;;-0.22;97.63
37778;BME280;23615;51.506;7.678;2022-11-20T03:00:43;99621.41;;;-0.21;98.07
37778;BME280;23615;51.506;7.678;2022-11-20T03:03:08;99621.72;;;-0.08;97.56
37778;BME280;23615;51.506;7.678;2022-11-20T03:05:34;99623.69;;;-0.10;97.90
37778;BME280;23615;51.506;7.678;2022-11-20T03:07:59;99620.25;;;-0.10;97.86
37778;BME280;23615;51.506;7.678;2022-11-20T03:10:24;99618.25;;;-0.08;97.88
37778;BME280;23615;51.506;7.678;2022-11-20T03:12:56;99612.84;;;0.10;97.17
37778;BME280;23615;51.506;7.678;2022-11-20T03:15:24;99614.00;;;0.15;97.01
37778;BME280;23615;51.506;7.678;2022-11-20T03:17:53;99608.75;;;0.15;97.30
37778;BME280;23615;51.506;7.678;2022-11-20T03:20:18;99595.59;;;0.23;96.60
37778;BME280;23615;51.506;7.678;2022-11-20T03:22:44;99601.31;;;0.35;96.57
37778;BME280;23615;51.506;7.678;2022-11-20T03:25:10;99615.41;;;0.42;96.66
37778;BME280;23615;51.506;7.678;2022-11-20T03:27:35;99600.72;;;0.64;95.30
37778;BME280;23615;51.506;7.678;2022-11-20T03:30:01;99590.97;;;0.42;95.27
37778;BME280;23615;51.506;7.678;2022-11-20T03:32:26;99583.97;;;0.26;96.09
37778;BME280;23615;51.506;7.678;2022-11-20T03:34:51;99592.16;;;0.23;96.69
37778;BME280;23615;51.506;7.678;2022-11-20T03:37:17;99600.69;;;0.25;96.92
37778;BME280;23615;51.506;7.678;2022-11-20T03:39:42;99592.75;;;0.49;96.66
37778;BME280;23615;51.506;7.678;2022-11-20T03:42:08;99570.47;;;0.37;96.71
37778;BME280;23615;51.506;7.678;2022-11-20T03:44:53;99591.59;;;0.52;96.83
37778;BME280;23615;51.506;7.678;2022-11-20T03:47:19;99578.50;;;0.44;96.55
37778;BME280;23615;51.506;7.678;2022-11-20T03:49:44;99579.34;;;0.36;96.67
37778;BME280;23615;51.506;7.678;2022-11-20T03:52:09;99576.50;;;0.54;96.95
37778;BME280;23615;51.506;7.678;2022-11-20T03:54:34;99578.13;;;0.47;96.51
37778;BME280;23615;51.506;7.678;2022-11-20T03:57:00;99573.03;;;0.61;96.53
37778;BME280;23615;51.506;7.678;2022-11-20T03:59:25;99575.88;;;0.44;96.48
37778;BME280;23615;51.506;7.678;2022-11-20T04:01:50;99573.44;;;0.34;96.93
37778;BME280;23615;51.506;7.678;2022-11-20T04:04:15;99578.69;;;0.34;97.51
37778;BME280;23615;51.506;7.678;2022-11-20T04:06:41;99583.44;;;0.30;98.02
37778;BME280;23615;51.506;7.678;2022-11-20T04:09:06;99578.00;;;0.40;97.78
37778;BME280;23615;51.506;7.678;2022-11-20T04:11:34;99585.88;;;0.40;98.14
37778;BME280;23615;51.506;7.678;2022-11-20T04:14:02;99595.09;;;0.36;98.21
37778;BME280;23615;51.506;7.678;2022-11-20T04:16:33;99584.22;;;0.47;98.23
37778;BME280;23615;51.506;7.678;2022-11-20T04:19:03;99579.50;;;0.43;98.11
37778;BME280;23615;51.506;7.678;2022-11-20T04:21:29;99585.38;;;0.45;98.31
37778;BME280;23615;51.506;7.678;2022-11-20T04:23:55;99580.59;;;0.48;98.09
37778;BME280;23615;51.506;7.678;2022-11-20T04:26:21;99575.69;;;0.53;97.97
37778;BME280;23615;51.506;7.678;2022-11-20T04:28:47;99582.72;;;0.53;98.12
37778;BME280;23615;51.506;7.678;2022-11-20T04:31:23;99578.56;;;0.66;98.10
37778;BME280;23615;51.506;7.678;2022-11-20T04:33:49;99582.31;;;0.72;97.57
37778;BME280;23615;51.506;7.678;2022-11-20T04:36:20;99579.91;;;0.62;98.00
37778;BME280;23615;51.506;7.678;2022-11-20T04:38:46;99577.09;;;0.64;98.18
37778;BME280;23615;51.506;7.678;2022-11-20T04:41:17;99572.84;;;0.63;98.30
37778;BME280;23615;51.506;7.678;2022-11-20T04:43:46;99573.84;;;0.62;98.57
37778;BME280;23615;51.506;7.678;2022-11-20T04:46:13;99569.50;;;0.77;98.16
37778;BME280;23615;51.506;7.678;2022-11-20T04:48:38;99570.97;;;0.80;98.15
37778;BME280;23615;51.506;7.678;2022-11-20T04:51:04;99577.84;;;0.81;98.20
37778;BME280;23615;51.506;7.678;2022-11-20T04:53:30;99567.19;;;0.74;98.32
37778;BME280;23615;51.506;7.678;2022-11-20T04:56:06;99574.25;;;0.82;97.92
37778;BME280;23615;51.506;7.678;2022-11-20T04:58:32;99564.25;;;0.77;97.94
37778;BME280;23615;51.506;7.678;2022-11-20T05:01:12;99567.75;;;0.92;97.60
37778;BME280;23615;51.506;7.678;2022-11-20T05:03:42;99567.34;;;0.81;97.81
37778;BME280;23615;51.506;7.678;2022-11-20T05:06:09;99568.47;;;0.86;97.65
37778;BME280;23615;51.506;7.678;2022-11-20T05:08:35;99571.25;;;1.16;97.63
37778;BME280;23615;51.506;7.678;2022-11-20T05:11:05;99567.69;;;1.08;97.26
37778;BME280;23615;51.506;7.678;2022-11-20T05:13:30;99578.91;;;0.94;97.37
37778;BME280;23615;51.506;7.678;2022-11-20T05:16:01;99575.69;;;1.15;97.17
37778;BME280;23615;51.506;7.678;2022-11-20T05:18:26;99576.13;;;0.96;97.04
37778;BME280;23615;51.506;7.678;2022-11-20T05:20:56;99574.16;;;0.98;97.36
37778;BME280;23615;51.506;7.678;2022-11-20T05:23:22;99571.34;;;0.99;97.14
37778;BME280;23615;51.506;7.678;2022-11-20T05:25:47;99575.31;;;0.95;97.05
37778;BME280;23615;51.506;7.678;2022-11-20T05:28:12;99570.25;;;0.86;97.21
37778;BME280;23615;51.506;7.678;2022-11-20T05:30:37;99571.56;;;0.90;97.26
37778;BME280;23615;51.506;7.678;2022-11-20T05:33:03;99575.69;;;0.84;97.24
37778;BME280;23615;51.506;7.678;2022-11-20T05:35:28;99569.31;;;0.79;97.97
37778;BME280;23615;51.506;7.678;2022-11-20T05:37:53;99568.47;;;0.86;97.26
37778;BME280;23615;51.506;7.678;2022-11-20T05:40:18;99561.84;;;0.98;97.17
37778;BME280;23615;51.506;7.678;2022-11-20T05:42:44;99564.69;;;1.11;96.30
37778;BME280;23615;51.506;7.678;2022-11-20T05:45:09;99564.38;;;0.84;96.21
37778;BME280;23615;51.506;7.678;2022-11-20T05:47:34;99563.31;;;0.93;96.01
37778;BME280;23615;51.506;7.678;2022-11-20T05:50:00;99565.34;;;0.83;96.13
37778;BME280;23615;51.506;7.678;2022-11-20T05:52:28;99567.03;;;0.75;96.29
37778;BME280;23615;51.506;7.678;2022-11-20T05:54:54;99561.94;;;0.74;96.70
37778;BME280;23615;51.506;7.678;2022-11-20T05:57:19;99565.22;;;0.76;95.93
37778;BME280;23615;51.506;7.678;2022-11-20T05:59:44;99562.53;;;0.61;95.92
37778;BME280;23615;51.506;7.678;2022-11-20T06:02:10;99558.41;;;0.59;96.50
37778;BME280;23615;51.506;7.678;2022-11-20T06:04:35;99557.81;;;0.49;96.51
37778;BME280;23615;51.506;7.678;2022-11-20T06:07:00;99550.59;;;0.51;96.15
37778;BME280;23615;51.506;7.678;2022-11-20T06:09:26;99561.38;;;0.56;96.28
37778;BME280;23615;51.506;7.678;2022-11-20T06:11:51;99558.50;;;0.43;96.58
37778;BME280;23615;51.506;7.678;2022-11-20T06:14:16;99559.78;;;0.47;96.31
37778;BME280;23615;51.506;7.678;2022-11-20T06:16:42;99544.22;;;0.37;96.33
37778;BME280;23615;51.506;7.678;2022-11-20T06:19:07;99558.69;;;0.33;96.13
37778;BME280;23615;51.506;7.678;2022-11-20T06:21:32;99560.16;;;0.27;96.50
37778;BME280;23615;51.506;7.678;2022-11-20T06:23:57;99557.75;;;0.26;96.22
37778;BME280;23615;51.506;7.678;2022-11-20T06:26:25;99563.94;;;0.33;96.08
37778;BME280;23615;51.506;7.678;2022-11-20T06:28:51;99564.94;;;0.24;95.65
37778;BME280;23615;51.506;7.678;2022-11-20T06:31:20;99563.81;;;0.18;95.89
37778;BME280;23615;51.506;7.678;2022-11-20T06:33:45;99561.50;;;0.23;96.02
37778;BME280;23615;51.506;7.678;2022-11-20T06:36:13;99562.19;;;0.17;95.67
37778;BME280;23615;51.506;7.678;2022-11-20T06:38:39;99563.59;;;0.28;94.60
37778;BME280;23615;51.506;7.678;2022-11-20T06:41:08;99564.41;;;0.36;93.99
37778;BME280;23615;51.506;7.678;2022-11-20T06:43:35;99573.09;;;0.45;93.02
37778;BME280;23615;51.506;7.678;2022-11-20T06:46:00;99563.16;;;0.24;92.94
37778;BME280;23615;51.506;7.678;2022-11-20T06:48:27;99565.13;;;0.22;93.92
37778;BME280;23615;51.506;7.678;2022-11-20T06:50:52;99576.88;;;0.34;93.35
37778;BME280;23615;51.506;7.678;2022-11-20T06:53:18;99577.69;;;0.43;93.12
37778;BME280;23615;51.506;7.678;2022-11-20T06:55:44;99579.47;;;0.51;92.97
37778;BME280;23615;51.506;7.678;2022-11-20T06:58:10;99580.97;;;0.45;93.29
37778;BME280;23615;51.506;7.678;2022-11-20T07:00:36;99576.91;;;0.26;93.75
37778;BME280;23615;51.506;7.678;2022-11-20T07:03:08;99584.28;;;0.23;94.42
37778;BME280;23615;51.506;7.678;2022-11-20T07:05:34;99577.22;;;0.31;94.76
37778;BME280;23615;51.506;7.678;2022-11-20T07:08:00;99586.41;;;0.19;94.34
37778;BME280;23615;51.506;7.678;2022-11-20T07:10:26;99579.91;;;0.07;95.40
37778;BME280;23615;51.506;7.678;2022-11-20T07:12:52;99578.13;;;-0.01;95.97
37778;BME280;23615;51.506;7.678;2022-11-20T07:15:19;99576.78;;;0.04;95.82
37778;BME280;23615;51.506;7.678;2022-11-20T07:17:45;99580.22;;;0.12;95.55
37778;BME280;23615;51.506;7.678;2022-11-20T07:20:10;99589.03;;;0.19;95.34
37778;BME280;23615;51.506;7.678;2022-11-20T07:22:36;99592.34;;;0.13;94.59
37778;BME280;23615;51.506;7.678;2022-11-20T07:25:03;99588.63;;;-0.01;94.98
37778;BME280;23615;51.506;7.678;2022-11-20T07:27:29;99599.59;;;-0.05;95.66
37778;BME280;23615;51.506;7.678;2022-11-20T07:29:54;99600.06;;;0.07;95.94
37778;BME280;23615;51.506;7.678;2022-11-20T07:32:20;99599.72;;;0.10;94.88
37778;BME280;23615;51.506;7.678;2022-11-20T07:34:45;99602.72;;;-0.02;94.80
37778;BME280;23615;51.506;7.678;2022-11-20T07:37:11;99609.41;;;-0.07;95.09
37778;BME280;23615;51.506;7.678;2022-11-20T07:39:36;99601.91;;;-0.10;95.45
37778;BME280;23615;51.506;7.678;2022-11-20T07:42:03;99605.97;;;-0.16;95.85
37778;BME280;23615;51.506;7.678;2022-11-20T07:44:29;99604.16;;;0.01;95.49
37778;BME280;23615;51.506;7.678;2022-11-20T07:46:54;99604.53;;;-0.10;94.83
37778;BME280;23615;51.506;7.678;2022-11-20T07:49:19;99604.81;;;0.03;94.31
37778;BME280;23615;51.506;7.678;2022-11-20T07:51:44;99606.78;;;0.17;94.48
37778;BME280;23615;51.506;7.678;2022-11-20T07:54:10;99602.97;;;0.28;93.27
37778;BME280;23615;51.506;7.678;2022-11-20T07:56:35;99601.81;;;0.30;93.30
37778;BME280;23615;51.506;7.678;2022-11-20T07:59:00;99601.50;;;0.25;93.37
37778;BME280;23615;51.506;7.678;2022-11-20T08:01:25;99601.84;;;0.22;93.49
37778;BME280;23615;51.506;7.678;2022-11-20T08:03:51;99604.63;;;0.21;93.98
37778;BME280;23615;51.506;7.678;2022-11-20T08:06:16;99609.22;;;0.27;94.10
37778;BME280;23615;51.506;7.678;2022-11-20T08:08:42;99605.47;;;0.13;94.60
37778;BME280;23615;51.506;7.678;2022-11-20T08:11:07;99604.00;;;-0.06;95.31
37778;BME280;23615;51.506;7.678;2022-11-20T08:13:51;99604.53;;;-0.10;95.58
37778;BME280;23615;51.506;7.678;2022-11-20T08:16:35;99604.69;;;-0.12;96.61
37778;BME280;23615;51.506;7.678;2022-11-20T08:19:00;99615.34;;;-0.13;96.45
37778;BME280;23615;51.506;7.678;2022-11-20T08:21:26;99610.91;;;-0.13;96.39
37778;BME280;23615;51.506;7.678;2022-11-20T08:23:51;99610.22;;;0.02;96.41
37778;BME280;23615;51.506;7.678;2022-11-20T08:26:16;99602.69;;;0.07;96.13
37778;BME280;23615;51.506;7.678;2022-11-20T08:28:42;99599.56;;;0.11;95.91
37778;BME280;23615;51.506;7.678;2022-11-20T08:31:07;99604.47;;;0.22;95.74
37778;BME280;23615;51.506;7.678;2022-11-20T08:33:32;99591.00;;;0.33;95.83
37778;BME280;23615;51.506;7.678;2022-11-20T08:36:02;99589.03;;;0.19;96.14
37778;BME280;23615;51.506;7.678;2022-11-20T08:38:28;99586.44;;;0.11;96.67
37778;BME280;23615;51.506;7.678;2022-11-20T08:40:58;99594.66;;;0.08;96.80
37778;BME280;23615;51.506;7.678;2022-11-20T08:43:42;99597.09;;;0.10;97.28
37778;BME280;23615;51.506;7.678;2022-11-20T08:46:07;99590.06;;;0.10;97.00
37778;BME280;23615;51.506;7.678;2022-11-20T08:48:32;99591.69;;;0.11;96.88
37778;BME280;23615;51.506;7.678;2022-11-20T08:50:58;99599.22;;;0.22;96.97
37778;BME280;23615;51.506;7.678;2022-11-20T08:53:24;99594.66;;;0.16;96.82
37778;BME280;23615;51.506;7.678;2022-11-20T08:55:49;99599.38;;;0.21;97.27
37778;BME280;23615;51.506;7.678;2022-11-20T08:58:15;99592.00;;;0.24;97.28
37778;BME280;23615;51.506;7.678;2022-11-20T09:00:40;99591.47;;;0.37;96.96
37778;BME280;23615;51.506;7.678;2022-11-20T09:03:05;99591.19;;;0.71;99.36
37778;BME280;23615;51.506;7.678;2022-11-20T09:05:31;99595.91;;;0.75;99.26
37778;BME280;23615;51.506;7.678;2022-11-20T09:07:56;99588.41;;;0.72;98.94
37778;BME280;23615;51.506;7.678;2022-11-20T09:10:22;99583.94;;;0.81;98.31
37778;BME280;23615;51.506;7.678;2022-11-20T09:12:51;99590.94;;;0.89;96.99
37778;BME280;23615;51.506;7.678;2022-11-20T09:15:17;99591.97;;;0.80;97.12
37778;BME280;23615;51.506;7.678;2022-11-20T09:17:42;99592.75;;;0.88;96.53
37778;BME280;23615;51.506;7.678;2022-11-20T09:20:15;99587.19;;;0.83;96.63
37778;BME280;23615;51.506;7.678;2022-11-20T09:22:41;99589.50;;;0.78;96.87
37778;BME280;23615;51.506;7.678;2022-11-20T09:25:06;99594.44;;;0.81;97.00
37778;BME280;23615;51.506;7.678;2022-11-20T09:27:32;99587.31;;;0.90;96.96
37778;BME280;23615;51.506;7.678;2022-11-20T09:29:57;99586.06;;;1.08;96.41
37778;BME280;23615;51.506;7.678;2022-11-20T09:32:22;99582.44;;;1.09;95.71
37778;BME280;23615;51.506;7.678;2022-11-20T09:34:47;99592.44;;;1.14;95.43
37778;BME280;23615;51.506;7.678;2022-11-20T09:37:13;99582.78;;;1.06;95.40
37778;BME280;23615;51.506;7.678;2022-11-20T09:39:38;99576.38;;;1.09;96.29
37778;BME280;23615;51.506;7.678;2022-11-20T09:42:24;99573.44;;;1.04;96.36
37778;BME280;23615;51.506;7.678;2022-11-20T09:45:05;99558.50;;;1.04;96.43
37778;BME280;23615;51.506;7.678;2022-11-20T09:48:04;99570.00;;;1.03;96.76
37778;BME280;23615;51.506;7.678;2022-11-20T09:50:42;99571.13;;;1.09;97.09
37778;BME280;23615;51.506;7.678;2022-11-20T09:53:37;99568.63;;;1.16;97.18
37778;BME280;23615;51.506;7.678;2022-11-20T09:56:09;99559.91;;;1.15;97.20
37778;BME280;23615;51.506;7.678;2022-11-20T09:58:42;99557.94;;;1.17;97.22
37778;BME280;23615;51.506;7.678;2022-11-20T10:01:21;99568.25;;;1.19;97.37
37778;BME280;23615;51.506;7.678;2022-11-20T10:03:54;99566.59;;;1.26;97.04
37778;BME280;23615;51.506;7.678;2022-11-20T10:06:28;99556.53;;;1.29;97.14
37778;BME280;23615;51.506;7.678;2022-11-20T10:09:14;99562.44;;;1.31;96.97
37778;BME280;23615;51.506;7.678;2022-11-20T10:17:24;99549.41;;;1.38;96.63
37778;BME280;23615;51.506;7.678;2022-11-20T10:23:02;99542.63;;;1.43;96.69
37778;BME280;23615;51.506;7.678;2022-11-20T10:25:39;99536.03;;;1.47;96.33
37778;BME280;23615;51.506;7.678;2022-11-20T10:30:45;99527.97;;;1.49;96.45
37778;BME280;23615;51.506;7.678;2022-11-20T10:33:25;99528.47;;;1.67;96.16
37778;BME280;23615;51.506;7.678;2022-11-20T10:38:30;99532.75;;;1.83;94.12
37778;BME280;23615;51.506;7.678;2022-11-20T10:41:01;99533.22;;;2.01;94.07
37778;BME280;23615;51.506;7.678;2022-11-20T10:43:46;99528.84;;;1.94;93.47
37778;BME280;23615;51.506;7.678;2022-11-20T10:46:20;99531.22;;;1.88;93.38
37778;BME280;23615;51.506;7.678;2022-11-20T10:48:48;99531.66;;;1.92;93.65
37778;BME280;23615;51.506;7.678;2022-11-20T10:53:54;99522.78;;;2.22;92.96
37778;BME280;23615;51.506;7.678;2022-11-20T10:56:22;99529.22;;;2.49;90.51
37778;BME280;23615;51.506;7.678;2022-11-20T10:59:04;99525.84;;;2.55;89.84
37778;BME280;23615;51.506;7.678;2022-11-20T11:01:40;99518.16;;;2.54;89.79
37778;BME280;23615;51.506;7.678;2022-11-20T11:04:28;99511.88;;;2.55;89.49
37778;BME280;23615;51.506;7.678;2022-11-20T11:07:00;99507.97;;;2.51;89.91
37778;BME280;23615;51.506;7.678;2022-11-20T11:09:33;99517.81;;;2.78;89.58
37778;BME280;23615;51.506;7.678;2022-11-20T11:12:00;99505.22;;;2.95;87.36
37778;BME280;23615;51.506;7.678;2022-11-20T11:14:25;99506.16;;;2.87;88.16
37778;BME280;23615;51.506;7.678;2022-11-20T11:16:54;99504.66;;;3.21;87.91
37778;BME280;23615;51.506;7.678;2022-11-20T11:19:21;99507.44;;;3.34;86.88
37778;BME280;23615;51.506;7.678;2022-11-20T11:21:47;99502.50;;;3.52;85.88
37778;BME280;23615;51.506;7.678;2022-11-20T11:24:43;99504.88;;;3.47;86.57
37778;BME280;23615;51.506;7.678;2022-11-20T11:27:16;99501.56;;;3.60;84.68
37778;BME280;23615;51.506;7.678;2022-11-20T11:29:42;99498.38;;;3.43;85.37
37778;BME280;23615;51.506;7.678;2022-11-20T11:32:12;99495.38;;;3.25;87.12
37778;BME280;23615;51.506;7.678;2022-11-20T11:34:38;99489.94;;;3.26;86.62
37778;BME280;23615;51.506;7.678;2022-11-20T11:37:04;99485.16;;;3.36;86.62
37778;BME280;23615;51.506;7.678;2022-11-20T11:39:36;99477.09;;;3.45;85.82
37778;BME280;23615;51.506;7.678;2022-11-20T11:42:04;99477.59;;;3.33;86.33
37778;BME280;23615;51.506;7.678;2022-11-20T11:44:34;99473.06;;;3.49;84.11
37778;BME280;23615;51.506;7.678;2022-11-20T11:47:25;99471.19;;;3.43;84.83
37778;BME280;23615;51.506;7.678;2022-11-20T11:52:43;99466.69;;;3.36;84.94
37778;BME280;23615;51.506;7.678;2022-11-20T11:55:17;99468.38;;;3.44;83.82
37778;BME280;23615;51.506;7.678;2022-11-20T11:57:50;99463.25;;;3.36;83.59
37778;BME280;23615;51.506;7.678;2022-11-20T12:00:19;99471.56;;;3.39;83.30
37778;BME280;23615;51.506;7.678;2022-11-20T12:05:29;99461.66;;;3.20;84.32
37778;BME280;23615;51.506;7.678;2022-11-20T12:16:00;99439.75;;;3.20;87.40
37778;BME280;23615;51.506;7.678;2022-11-20T12:18:27;99434.50;;;3.20;88.00
37778;BME280;23615;51.506;7.678;2022-11-20T12:21:02;99432.75;;;3.27;87.84
37778;BME280;23615;51.506;7.678;2022-11-20T12:24:05;99429.47;;;3.25;88.14
37778;BME280;23615;51.506;7.678;2022-11-20T12:26:40;99430.72;;;3.29;88.58
37778;BME280;23615;51.506;7.678;2022-11-20T12:29:14;99426.13;;;3.37;88.52
37778;BME280;23615;51.506;7.678;2022-11-20T12:31:56;99424.38;;;3.45;88.76
37778;BME280;23615;51.506;7.678;2022-11-20T12:39:34;99401.03;;;3.83;87.77
37778;BME280;23615;51.506;7.678;2022-11-20T12:48:09;99404.09;;;3.86;87.48
37778;BME280;23615;51.506;7.678;2022-11-20T12:59:32;99376.91;;;3.86;87.52
37778;BME280;23615;51.506;7.678;2022-11-20T13:02:15;99379.56;;;3.92;87.29
37778;BME280;23615;51.506;7.678;2022-11-20T13:04:55;99372.72;;;4.04;87.72
37778;BME280;23615;51.506;7.678;2022-11-20T13:07:27;99374.53;;;3.97;87.76
37778;BME280;23615;51.506;7.678;2022-11-20T13:09:53;99364.56;;;3.93;87.69
37778;BME280;23615;51.506;7.678;2022-11-20T13:12:31;99368.19;;;3.92;87.59
37778;BME280;23615;51.506;7.678;2022-11-20T13:15:16;99364.34;;;3.94;87.64
37778;BME280;23615;51.506;7.678;2022-11-20T13:17:48;99344.03;;;3.88;88.12
37778;BME280;23615;51.506;7.678;2022-11-20T13:20:19;99354.59;;;3.82;87.90
37778;BME280;23615;51.506;7.678;2022-11-20T13:22:50;99345.41;;;3.78;88.38
37778;BME280;23615;51.506;7.678;2022-11-20T13:25:30;99335.06;;;3.76;88.29
37778;BME280;23615;51.506;7.678;2022-11-20T13:27:59;99333.03;;;3.78;87.49
37778;BME280;23615;51.506;7.678;2022-11-20T13:30:26;99329.41;;;3.79;87.89
37778;BME280;23615;51.506;7.678;2022-11-20T13:33:07;99328.78;;;3.77;87.82
37778;BME280;23615;51.506;7.678;2022-11-20T13:35:41;99314.75;;;3.76;87.72
37778;BME280;23615;51.506;7.678;2022-11-20T13:38:14;99314.00;;;3.89;86.95
37778;BME280;23615;51.506;7.678;2022-11-20T13:40:54;99307.31;;;3.87;87.19
37778;BME280;23615;51.506;7.678;2022-11-20T13:45:59;99307.66;;;3.70;88.71
37778;BME280;23615;51.506;7.678;2022-11-20T13:48:29;99301.94;;;3.67;88.96
37778;BME280;23615;51.506;7.678;2022-11-20T13:51:08;99295.66;;;3.68;89.48
37778;BME280;23615;51.506;7.678;2022-11-20T14:01:48;99278.03;;;3.75;88.21
37778;BME280;23615;51.506;7.678;2022-11-20T14:04:25;99278.81;;;3.69;88.41
37778;BME280;23615;51.506;7.678;2022-11-20T14:06:52;99272.53;;;3.70;89.15
37778;BME280;23615;51.506;7.678;2022-11-20T14:09:31;99267.66;;;3.67;88.56
37778;BME280;23615;51.506;7.678;2022-11-20T14:11:58;99271.28;;;3.66;89.45
37778;BME280;23615;51.506;7.678;2022-11-20T14:14:27;99258.91;;;3.60;89.48
37778;BME280;23615;51.506;7.678;2022-11-20T14:17:06;99252.63;;;3.61;89.76
37778;BME280;23615;51.506;7.678;2022-11-20T14:19:32;99254.84;;;3.57;89.18
37778;BME280;23615;51.506;7.678;2022-11-20T14:22:30;99251.38;;;3.57;89.40
37778;BME280;23615;51.506;7.678;2022-11-20T14:27:42;99243.06;;;3.53;89.62